Time;durP1;ratioP1;P1;durP2;ratioP2;P2;SDS_P1;SDS_P2;PMS_P1;PMS_P2;Temp;Humidity;BMP_temperature;BMP_pressure;BME280_temperature;BME280_humidity;BME280_pressure;Samples;Min_cycle;Max_cycle;Signal;HPM_P1;HPM_P2
2022/08/31 15:54:42;;;;;;;8.52;3.47;;;;;;;27.21;34.31;98484.25;4509954;31;120188;-81
2022/08/31 15:57:10;;;;;;;10.40;3.20;;;;;;;27.21;34.31;98484.25;4473820;31;20130;-82
2022/08/31 15:59:38;;;;;;;10.88;3.53;;;;;;;27.26;33.59;98493.50;4505264;31;20105;-81
2022/08/31 16:02:05;;;;;;;8.30;3.08;;;;;;;27.77;32.57;98491.47;4486439;31;20089;-77
2022/08/31 16:04:32;;;;;;;8.48;3.15;;;;;;;27.92;32.49;98489.47;4491977;31;20134;-79
2022/08/31 16:06:59;;;;;;;7.65;3.40;;;;;;;28.33;32.04;98485.84;4497894;31;20112;-82
2022/08/31 16:09:26;;;;;;;12.68;3.10;;;;;;;28.45;31.78;98488.75;4506425;31;20126;-83
2022/08/31 16:11:52;;;;;;;10.63;3.53;;;;;;;28.39;31.79;98485.00;4487978;31;20114;-83
2022/08/31 16:14:19;;;;;;;9.13;3.15;;;;;;;28.35;32.35;98482.94;4485996;32;20119;-82
2022/08/31 16:16:46;;;;;;;9.80;3.08;;;;;;;28.46;32.12;98486.91;4491512;31;20122;-82
2022/08/31 16:19:16;;;;;;;9.13;3.20;;;;;;;28.76;31.54;98481.94;4482337;31;20470;-82
2022/08/31 16:21:44;;;;;;;8.32;3.03;;;;;;;28.56;31.89;98492.78;4494267;31;20088;-82
2022/08/31 16:24:16;;;;;;;10.00;3.08;;;;;;;28.45;32.11;98483.34;4493391;32;20163;-81
2022/08/31 16:26:43;;;;;;;10.57;3.67;;;;;;;28.10;32.48;98490.78;4493598;32;20091;-82
2022/08/31 16:29:13;;;;;;;8.18;2.97;;;;;;;28.12;32.42;98494.13;4493668;32;20122;-82
2022/08/31 16:31:40;;;;;;;8.70;3.10;;;;;;;28.32;32.42;98481.47;4486430;31;20087;-82
2022/08/31 16:34:06;;;;;;;7.75;3.15;;;;;;;27.96;32.74;98493.44;4481705;32;20409;-82
2022/08/31 16:36:33;;;;;;;10.57;3.40;;;;;;;28.27;32.24;98481.25;4506545;31;20107;-82
2022/08/31 16:39:00;;;;;;;8.65;2.90;;;;;;;27.90;32.86;98491.56;4500275;31;20593;-81
2022/08/31 16:41:27;;;;;;;;;;;;;;;28.14;32.37;98506.41;4485762;31;20143;-83
2022/08/31 16:43:53;;;;;;;8.38;2.40;;;;;;;27.51;33.51;98495.72;4480483;32;20052;-81
2022/08/31 16:46:18;;;;;;;9.68;3.10;;;;;;;27.71;33.43;98497.69;4494904;31;20123;-83
2022/08/31 16:51:29;;;;;;;8.10;3.10;;;;;;;27.80;33.61;98494.59;4487372;31;20114;-80
2022/08/31 16:53:58;;;;;;;10.48;3.20;;;;;;;27.46;34.61;98500.88;4489507;31;20164;-81
2022/08/31 16:56:25;;;;;;;8.43;3.22;;;;;;;27.49;34.89;98503.22;4503249;31;20175;-81
2022/08/31 16:58:51;;;;;;;;;;;;;;;27.79;34.39;98501.03;4486604;31;20177;-78
2022/08/31 17:01:22;;;;;;;7.85;2.80;;;;;;;27.87;34.46;98500.03;4486923;31;20372;-78
2022/08/31 17:03:50;;;;;;;8.70;3.17;;;;;;;27.86;34.69;98495.69;4483810;31;20514;-79
2022/08/31 17:06:16;;;;;;;7.32;2.97;;;;;;;27.36;35.71;98503.94;4479077;31;20147;-78
2022/08/31 17:08:44;;;;;;;8.77;2.90;;;;;;;27.81;35.02;98504.38;4479354;32;20100;-78
2022/08/31 17:11:22;;;;;;;8.57;3.17;;;;;;;27.81;35.06;98503.56;4492108;31;20114;-80
2022/08/31 17:13:56;;;;;;;8.73;3.10;;;;;;;27.90;35.03;98505.09;4493841;31;20123;-77
2022/08/31 17:16:23;;;;;;;9.05;3.17;;;;;;;27.87;35.14;98505.44;4478560;32;20100;-78
2022/08/31 17:18:51;;;;;;;10.65;3.05;;;;;;;27.90;35.08;98504.25;4483193;31;20488;-78
2022/08/31 17:21:16;;;;;;;;;;;;;;;27.81;35.37;98503.56;4482832;32;20479;-76
2022/08/31 17:23:49;;;;;;;7.55;2.90;;;;;;;27.73;35.56;98499.16;4485520;31;20074;-77
2022/08/31 17:26:16;;;;;;;9.27;2.70;;;;;;;27.71;35.59;98501.22;4489573;31;20122;-79
2022/08/31 17:28:42;;;;;;;8.35;3.00;;;;;;;27.43;36.18;98504.00;4489612;31;20561;-77
2022/08/31 17:31:09;;;;;;;9.27;2.75;;;;;;;27.44;36.08;98511.91;4495079;31;20080;-78
2022/08/31 17:33:35;;;;;;;11.07;3.62;;;;;;;27.31;36.35;98511.00;4483008;31;20130;-78
2022/08/31 17:36:01;;;;;;;10.95;3.50;;;;;;;27.42;36.02;98511.25;4494479;31;20108;-78
2022/08/31 17:38:27;;;;;;;8.90;3.05;;;;;;;27.17;36.49;98516.28;4489611;31;20108;-78
2022/08/31 17:40:54;;;;;;;8.07;3.37;;;;;;;27.21;36.54;98514.84;4494405;31;20543;-78
2022/08/31 17:43:20;;;;;;;;;;;;;;;27.03;36.89;98520.75;4486673;31;20598;-78
2022/08/31 17:45:46;;;;;;;9.90;3.50;;;;;;;26.90;37.32;98517.13;4483964;32;20002;-83
2022/08/31 17:48:11;;;;;;;9.75;3.17;;;;;;;27.14;36.93;98522.09;4482637;32;20103;-82
2022/08/31 17:50:43;;;;;;;8.48;3.20;;;;;;;27.31;36.46;98525.34;4484665;31;20106;-82
2022/08/31 17:53:08;;;;;;;11.90;3.50;;;;;;;27.13;36.88;98535.81;4496681;31;20103;-82
2022/08/31 17:55:34;;;;;;;8.25;3.15;;;;;;;27.15;36.89;98534.56;4485220;31;20123;-82
2022/08/31 17:57:59;;;;;;;9.02;3.33;;;;;;;27.09;37.06;98534.53;4482904;32;20479;-84
2022/08/31 18:00:27;;;;;;;9.02;3.20;;;;;;;26.85;37.54;98542.88;4491647;31;20092;-84
2022/08/31 18:02:52;;;;;;;9.73;3.42;;;;;;;27.13;37.12;98549.31;4489930;31;20127;-84
2022/08/31 18:05:18;;;;;;;8.55;3.03;;;;;;;27.09;37.26;98539.94;4498030;31;20434;-84
2022/08/31 18:07:44;;;;;;;9.00;3.42;;;;;;;27.26;36.93;98544.87;4487590;31;20123;-84
2022/08/31 18:10:11;;;;;;;9.80;3.35;;;;;;;27.08;37.44;98547.19;4493863;31;20127;-85
2022/08/31 18:12:40;;;;;;;9.65;3.20;;;;;;;27.16;37.41;98554.31;4493309;31;20481;-85
2022/08/31 18:15:07;;;;;;;10.38;3.30;;;;;;;27.24;37.29;98551.50;4489462;31;20130;-85
2022/08/31 18:17:33;;;;;;;8.48;3.53;;;;;;;27.05;37.77;98543.03;4496585;31;20605;-84
2022/08/31 18:19:58;;;;;;;10.25;3.20;;;;;;;26.68;38.68;98547.69;4488997;31;20124;-84
2022/08/31 18:22:24;;;;;;;8.02;2.92;;;;;;;26.43;39.35;98552.59;4493575;31;20100;-84
2022/08/31 18:24:50;;;;;;;8.60;3.10;;;;;;;26.93;38.34;98554.56;4494453;31;20228;-84
2022/08/31 18:27:15;;;;;;;9.57;3.37;;;;;;;26.94;38.49;98556.22;4484132;32;20100;-84
2022/08/31 18:29:42;;;;;;;8.13;3.20;;;;;;;26.92;38.48;98558.28;4497946;31;20104;-84
2022/08/31 18:32:09;;;;;;;9.85;3.72;;;;;;;27.10;38.07;98555.97;4489733;31;20691;-85
2022/08/31 18:34:38;;;;;;;9.70;3.30;;;;;;;26.97;38.38;98553.97;4492086;31;20088;-82
2022/08/31 18:37:04;;;;;;;9.07;3.62;;;;;;;26.79;38.80;98562.56;4496290;31;20119;-81
2022/08/31 18:45:14;;;;;;;13.55;3.78;;;;;;;26.75;38.88;98557.72;4482435;32;20119;-82
2022/08/31 18:45:17;;;;;;;8.82;3.37;;;;;;;26.76;39.01;98564.81;4489051;31;20119;-82
2022/08/31 18:47:45;;;;;;;7.47;3.05;;;;;;;26.42;39.67;98567.13;4497316;31;20143;-82
2022/08/31 18:50:11;;;;;;;8.43;3.37;;;;;;;26.84;38.83;98565.50;4489971;31;20170;-81
2022/08/31 18:52:39;;;;;;;10.25;3.70;;;;;;;26.72;38.92;98561.66;4482640;31;20123;-82
2022/08/31 18:55:05;;;;;;;8.85;3.50;;;;;;;26.61;39.33;98576.50;4495440;31;20088;-82
2022/08/31 18:57:31;;;;;;;8.68;3.45;;;;;;;26.78;38.92;98563.56;4487339;31;20097;-82
2022/08/31 19:00:01;;;;;;;9.05;3.55;;;;;;;26.74;39.05;98558.75;4495492;31;20104;-81
2022/08/31 19:02:27;;;;;;;9.68;3.20;;;;;;;26.70;39.23;98563.72;4491611;31;20345;-82
2022/08/31 19:04:53;;;;;;;12.60;3.83;;;;;;;26.68;39.37;98571.19;4481237;31;20092;-81
2022/08/31 19:07:19;;;;;;;9.45;3.40;;;;;;;26.86;38.96;98573.41;4471890;32;20084;-80
2022/08/31 19:09:46;;;;;;;9.23;3.35;;;;;;;26.73;39.41;98573.28;4484387;32;20103;-86
2022/08/31 19:12:18;;;;;;;10.68;4.00;;;;;;;26.85;38.80;98579.88;4484593;31;20105;-83
2022/08/31 19:14:49;;;;;;;10.85;4.10;;;;;;;26.77;39.29;98582.69;4493142;31;20217;-83
2022/08/31 19:17:15;;;;;;;8.98;3.70;;;;;;;26.72;39.30;98593.25;4487112;31;20097;-81
2022/08/31 19:19:40;;;;;;;11.32;3.60;;;;;;;26.55;39.65;98595.31;4490245;31;20388;-83
2022/08/31 19:22:06;;;;;;;9.10;3.62;;;;;;;26.02;40.77;98592.81;4483834;31;20092;-83
2022/08/31 19:24:31;;;;;;;7.55;3.12;;;;;;;26.08;40.67;98592.91;4491181;31;20148;-82
2022/08/31 19:26:58;;;;;;;7.32;2.65;;;;;;;26.18;38.98;98595.31;4484110;31;20453;-83
2022/08/31 19:29:26;;;;;;;7.35;2.70;;;;;;;26.40;35.94;98596.19;4496766;31;20108;-82
2022/08/31 19:31:54;;;;;;;8.65;2.70;;;;;;;26.54;34.04;98591.78;4482754;31;20627;-83
2022/08/31 19:34:22;;;;;;;9.05;2.87;;;;;;;26.60;33.57;98592.94;4491004;31;20155;-82
2022/08/31 19:36:49;;;;;;;8.85;3.15;;;;;;;26.58;33.18;98597.63;4489672;31;20100;-81
2022/08/31 19:39:17;;;;;;;8.98;2.92;;;;;;;26.45;33.24;98591.06;4489631;31;20084;-79
2022/08/31 19:41:48;;;;;;;7.68;2.58;;;;;;;26.42;33.33;98591.44;4497006;31;20493;-82
2022/08/31 19:44:14;;;;;;;6.75;2.65;;;;;;;26.42;33.24;98606.81;4489903;31;20130;-82
2022/08/31 19:46:41;;;;;;;12.02;2.97;;;;;;;26.52;33.19;98607.34;4491100;31;20084;-83
2022/08/31 19:49:09;;;;;;;;;;;;;;;26.47;33.29;98601.69;4496402;31;20160;-79
2022/08/31 19:51:38;;;;;;;7.10;2.60;;;;;;;26.52;33.16;98599.25;4486703;31;19987;-83
2022/08/31 19:54:07;;;;;;;6.32;2.50;;;;;;;26.36;33.32;98605.69;4494585;31;20128;-81
2022/08/31 19:56:33;;;;;;;6.78;2.53;;;;;;;26.44;33.33;98602.91;4490885;31;20107;-82
2022/08/31 19:58:58;;;;;;;8.70;2.60;;;;;;;26.41;33.29;98610.56;4499486;31;20200;-81
2022/08/31 20:01:29;;;;;;;8.07;2.95;;;;;;;26.27;33.71;98596.06;4484678;31;20112;-80
2022/08/31 20:03:55;;;;;;;7.90;2.67;;;;;;;26.38;33.52;98594.72;4482606;32;20120;-79
2022/08/31 20:06:24;;;;;;;7.40;2.53;;;;;;;26.29;33.67;98599.41;4490395;31;20171;-81
2022/08/31 20:08:50;;;;;;;7.35;2.47;;;;;;;26.19;33.43;98621.31;4489658;31;20704;-81
2022/08/31 20:11:22;;;;;;;6.53;2.70;;;;;;;25.97;33.12;98620.38;4482072;31;20155;-79
2022/08/31 20:13:49;;;;;;;6.90;2.58;;;;;;;25.84;33.35;98612.88;4481225;32;20096;-81
2022/08/31 20:16:14;;;;;;;6.05;2.28;;;;;;;25.88;33.27;98614.22;4484130;32;20151;-81
2022/08/31 20:18:45;;;;;;;7.40;2.70;;;;;;;25.90;33.21;98620.25;4492210;31;20168;-81
2022/08/31 20:21:16;;;;;;;9.27;2.62;;;;;;;25.96;33.20;98615.16;4481885;32;20112;-82
2022/08/31 20:23:46;;;;;;;6.18;2.22;;;;;;;25.95;33.22;98613.50;4496024;31;20088;-81
2022/08/31 20:26:13;;;;;;;8.25;2.58;;;;;;;25.83;33.52;98616.63;4488945;31;20122;-81
2022/08/31 20:28:39;;;;;;;9.48;3.05;;;;;;;25.92;33.47;98605.75;4489786;31;20677;-81
2022/08/31 20:31:08;;;;;;;6.65;2.55;;;;;;;25.79;33.79;98609.09;4480726;31;20138;-82
2022/08/31 20:33:34;;;;;;;7.45;2.80;;;;;;;25.98;33.47;98605.00;4485332;31;20100;-81
2022/08/31 20:36:00;;;;;;;5.45;2.25;;;;;;;25.88;33.79;98599.88;4494905;31;20115;-81
2022/08/31 20:38:28;;;;;;;7.32;2.72;;;;;;;25.49;34.58;98614.44;4488697;31;20530;-81
2022/08/31 20:40:54;;;;;;;8.43;2.72;;;;;;;25.57;34.52;98600.03;4495104;31;20099;-82
2022/08/31 20:43:20;;;;;;;7.70;2.83;;;;;;;25.58;34.55;98597.16;4488329;31;20100;-82
2022/08/31 20:45:46;;;;;;;7.53;2.72;;;;;;;25.78;34.37;98593.91;4498414;31;20129;-82
2022/08/31 20:50:56;;;;;;;7.95;2.70;;;;;;;25.73;34.63;98599.03;4484602;32;20122;-82
2022/08/31 20:53:22;;;;;;;7.65;3.08;;;;;;;25.63;35.08;98608.25;4498497;31;20096;-81
2022/08/31 20:55:49;;;;;;;6.57;2.60;;;;;;;25.31;36.32;98621.03;4487561;31;20115;-80
2022/08/31 20:58:15;;;;;;;7.28;2.58;;;;;;;24.92;36.95;98621.16;4483735;32;20113;-81
2022/08/31 21:00:46;;;;;;;7.57;2.72;;;;;;;25.13;36.99;98620.50;4483308;32;20112;-81
2022/08/31 21:03:13;;;;;;;7.82;3.00;;;;;;;25.05;37.61;98623.22;4485981;31;20089;-82
2022/08/31 21:05:41;;;;;;;8.82;2.90;;;;;;;25.19;37.51;98617.06;4496975;31;21772;-81
2022/08/31 21:08:07;;;;;;;7.18;2.70;;;;;;;25.12;37.69;98624.19;4490539;31;20106;-82
2022/08/31 21:10:34;;;;;;;7.82;2.80;;;;;;;24.73;38.44;98619.78;4483409;32;20176;-81
2022/08/31 21:12:59;;;;;;;8.82;2.97;;;;;;;24.82;38.37;98629.47;4495730;31;20126;-82
2022/08/31 21:15:26;;;;;;;7.10;2.97;;;;;;;24.45;39.16;98627.47;4487492;31;20118;-82
2022/08/31 21:17:54;;;;;;;7.65;3.00;;;;;;;24.73;38.63;98630.53;4484161;32;20122;-82
2022/08/31 21:20:20;;;;;;;8.02;3.20;;;;;;;24.51;38.99;98632.16;4483325;32;20112;-82
2022/08/31 21:22:45;;;;;;;8.75;3.17;;;;;;;24.18;39.84;98634.16;4484885;31;20119;-82
2022/08/31 21:25:11;;;;;;;8.68;3.12;;;;;;;24.23;39.38;98632.62;4496723;31;20141;-82
2022/08/31 21:27:40;;;;;;;8.05;2.95;;;;;;;24.50;39.00;98625.09;4487896;31;20148;-82
2022/08/31 21:30:08;;;;;;;8.32;2.83;;;;;;;24.05;40.00;98632.00;4483834;32;20121;-81
2022/08/31 21:32:33;;;;;;;8.15;2.78;;;;;;;23.78;40.50;98630.56;4483091;32;20100;-81
2022/08/31 21:34:59;;;;;;;8.43;2.70;;;;;;;23.97;39.80;98629.34;4483157;32;20155;-79
2022/08/31 21:37:25;;;;;;;7.03;2.70;;;;;;;24.30;38.96;98627.41;4482650;32;20092;-81
2022/08/31 21:39:51;;;;;;;8.40;2.80;;;;;;;24.11;39.04;98639.41;4492353;31;20492;-81
2022/08/31 21:42:17;;;;;;;6.80;2.55;;;;;;;23.95;39.50;98640.28;4489968;31;20110;-82
2022/08/31 21:44:43;;;;;;;6.97;2.55;;;;;;;23.68;40.01;98633.44;4483452;32;20097;-80
2022/08/31 21:47:13;;;;;;;7.95;2.67;;;;;;;23.94;39.21;98638.63;4482963;32;20080;-82
2022/08/31 21:49:43;;;;;;;8.38;2.55;;;;;;;23.55;39.49;98629.44;4486710;31;20096;-81
2022/08/31 21:52:09;;;;;;;7.25;2.75;;;;;;;23.39;40.10;98631.31;4494474;31;20096;-87
2022/08/31 21:54:35;;;;;;;8.95;2.40;;;;;;;23.92;38.96;98629.87;4492980;31;20100;-82
2022/08/31 21:57:02;;;;;;;7.78;2.67;;;;;;;23.83;38.98;98629.06;4489002;31;20115;-81
2022/08/31 21:59:31;;;;;;;5.30;2.37;;;;;;;23.34;39.72;98634.50;4496997;31;20134;-82
2022/08/31 22:01:59;;;;;;;7.53;2.37;;;;;;;23.55;39.44;98631.28;4488931;31;20459;-82
2022/08/31 22:04:30;;;;;;;5.93;2.37;;;;;;;23.44;39.47;98618.19;4484175;32;20096;-82
2022/08/31 22:06:58;;;;;;;6.65;2.25;;;;;;;23.83;38.61;98634.44;4494680;31;20359;-82
2022/08/31 22:09:24;;;;;;;8.15;2.33;;;;;;;23.55;38.55;98620.53;4483715;31;20126;-82
2022/08/31 22:11:53;;;;;;;4.07;1.60;;;;;;;23.20;39.09;98627.97;4496788;31;20172;-83
2022/08/31 22:14:24;;;;;;;5.45;1.90;;;;;;;22.75;39.75;98623.88;4464029;31;20113;-83
2022/08/31 22:16:50;;;;;;;5.70;1.75;;;;;;;23.03;38.95;98621.75;4489793;31;20189;-82
2022/08/31 22:19:19;;;;;;;6.72;1.83;;;;;;;22.81;39.18;98639.31;4497538;31;20100;-82
2022/08/31 22:21:48;;;;;;;5.78;1.60;;;;;;;22.74;39.14;98627.56;4471479;32;20127;-83
2022/08/31 22:24:16;;;;;;;6.43;1.80;;;;;;;23.06;38.77;98631.31;4484260;31;20083;-81
2022/08/31 22:26:45;;;;;;;6.20;2.03;;;;;;;23.12;38.56;98625.25;4493691;31;20093;-82
2022/08/31 22:29:13;;;;;;;5.60;2.05;;;;;;;23.12;38.84;98627.94;4482388;32;20100;-82
2022/08/31 22:31:38;;;;;;;;;;;;;;;22.47;40.32;98629.53;4497834;31;20140;-82
2022/08/31 22:34:08;;;;;;;5.32;1.87;;;;;;;22.79;40.20;98627.91;4473687;31;20339;-82
2022/08/31 22:36:34;;;;;;;6.43;1.98;;;;;;;22.87;40.43;98629.75;4491728;31;20092;-82
2022/08/31 22:39:09;;;;;;;6.57;2.10;;;;;;;22.53;42.50;98630.72;4474764;32;20408;-82
2022/08/31 22:41:36;;;;;;;7.97;2.08;;;;;;;22.62;43.57;98629.72;4482905;32;20253;-82
2022/08/31 22:44:05;;;;;;;6.78;2.45;;;;;;;22.56;43.59;98628.53;4488515;31;20083;-82
2022/08/31 22:46:31;;;;;;;6.45;2.40;;;;;;;22.66;43.44;98630.25;4485421;31;20092;-81
2022/08/31 22:48:57;;;;;;;7.53;2.40;;;;;;;22.64;43.35;98632.22;4487853;31;20136;-82
2022/08/31 22:51:26;;;;;;;6.57;2.20;;;;;;;22.88;43.61;98632.28;4484218;31;20148;-82
2022/08/31 22:53:51;;;;;;;7.05;2.50;;;;;;;22.64;44.17;98640.28;4494524;31;20435;-83
2022/08/31 22:56:24;;;;;;;7.90;2.80;;;;;;;23.03;44.40;98645.09;4496283;31;20111;-84
2022/08/31 22:58:51;;;;;;;6.78;2.25;;;;;;;22.72;44.50;98656.44;4486528;32;20080;-84
2022/08/31 23:01:18;;;;;;;10.20;3.62;;;;;;;22.93;43.56;98648.75;4472875;32;20135;-85
2022/08/31 23:03:45;;;;;;;8.95;2.87;;;;;;;22.75;45.56;98656.09;4486453;32;20088;-83
2022/08/31 23:06:11;;;;;;;6.93;2.47;;;;;;;22.74;47.57;98654.44;4486723;32;20579;-84
2022/08/31 23:08:38;;;;;;;9.27;2.72;;;;;;;22.77;45.60;98657.63;4487055;32;20700;-84
2022/08/31 23:11:04;;;;;;;10.47;2.50;;;;;;;22.33;48.59;98668.56;4499675;31;20121;-84
2022/08/31 23:13:50;;;;;;;8.40;2.47;;;;;;;21.97;49.53;98670.53;4502747;31;20483;-83
2022/08/31 23:16:15;;;;;;;6.85;2.35;;;;;;;21.89;51.15;98681.22;4499903;31;20100;-84
2022/08/31 23:18:42;;;;;;;7.22;2.40;;;;;;;21.72;50.41;98680.28;4472688;32;20104;-84
2022/08/31 23:21:08;;;;;;;7.32;2.55;;;;;;;21.46;53.01;98682.94;4488912;31;20093;-85
2022/08/31 23:23:35;;;;;;;7.95;2.75;;;;;;;21.52;53.17;98690.37;4502706;31;20133;-85
2022/08/31 23:26:08;;;;;;;8.32;2.65;;;;;;;21.29;54.32;98688.13;4488521;31;20075;-85
2022/08/31 23:28:36;;;;;;;8.90;2.20;;;;;;;21.64;53.08;98694.47;4502750;31;20161;-85
2022/08/31 23:31:01;;;;;;;6.53;2.25;;;;;;;21.43;53.76;98692.09;4502558;31;20115;-85
2022/08/31 23:33:28;;;;;;;6.93;2.40;;;;;;;21.30;51.13;98684.44;4502479;31;20139;-85
2022/08/31 23:35:54;;;;;;;6.18;2.17;;;;;;;21.17;51.31;98675.94;4502565;31;20088;-85
2022/08/31 23:38:21;;;;;;;5.70;2.17;;;;;;;20.97;51.61;98686.81;4502630;31;20084;-85
2022/08/31 23:40:48;;;;;;;7.03;2.25;;;;;;;20.66;54.37;98693.53;4502494;31;20416;-85
2022/08/31 23:43:14;;;;;;;10.32;2.90;;;;;;;21.06;54.84;98703.84;4502552;31;20108;-85
2022/08/31 23:45:41;;;;;;;7.45;2.33;;;;;;;20.98;55.96;98703.75;4502582;31;20164;-85
2022/08/31 23:48:08;;;;;;;6.30;2.40;;;;;;;21.14;53.67;98701.22;4502490;31;20095;-85
2022/08/31 23:50:33;;;;;;;9.77;3.07;;;;;;;20.61;55.14;98702.88;4502404;31;20095;-84
2022/08/31 23:52:59;;;;;;;8.68;2.70;;;;;;;21.00;54.99;98694.56;4502114;31;20224;-84
2022/08/31 23:55:27;;;;;;;7.25;2.40;;;;;;;20.98;54.84;98693.88;4502351;31;20094;-84
2022/08/31 23:57:58;;;;;;;9.05;2.55;;;;;;;21.25;54.60;98685.91;4502304;31;20126;-85
